Sidi Heneish, Egypt
Current Conditions -  °F | °C
As of 4:00 PM on Monday 22 Dec 2014 (Local Time) from HEMM Reporting Station
Scattered Clouds Scattered Clouds  
Wind Chill: 63°   Ceiling: Unl
Heat Index: 63°   Visibility: 6mi
Dew Point: 54°   Wind: 13mph
Humidity: 72%   Direction: 360°N
Pressure: 30.21"   Gusts: NA
Location:  31.17°N, 27.62°E
Report Text: HEMM 221400Z 36011KT 9999 SCT020 17/12 Q1023 NOSIG
Loading
Personal Weather Stations






























Interactive Weather Map New forecast layout! Learn more

10-Day Weather Forecast

Advertisements
Track Severe Weather on mobile